createdAt,value
2023-05-10T00:00:37.401Z,64.90
2023-05-10T00:01:37.520Z,65.12
2023-05-10T00:02:37.754Z,65.06
2023-05-10T00:03:37.746Z,65.07
2023-05-10T00:04:37.709Z,65.27
2023-05-10T00:05:37.800Z,65.32
2023-05-10T00:06:37.905Z,65.41
2023-05-10T00:07:37.971Z,65.35
2023-05-10T00:08:38.081Z,65.35
2023-05-10T00:09:38.122Z,65.30
2023-05-10T00:10:38.228Z,65.38
2023-05-10T00:11:38.320Z,65.36
2023-05-10T00:12:38.429Z,65.41
2023-05-10T00:13:38.494Z,65.43
2023-05-10T00:14:38.689Z,65.38
2023-05-10T00:15:38.696Z,65.49
2023-05-10T00:16:38.783Z,65.48
2023-05-10T00:17:38.826Z,65.49
2023-05-10T00:18:38.889Z,65.54
2023-05-10T00:19:38.999Z,65.55
2023-05-10T00:20:39.044Z,65.51
2023-05-10T00:21:39.133Z,65.35
2023-05-10T00:22:39.217Z,65.40
2023-05-10T00:23:39.266Z,65.37
2023-05-10T00:24:39.358Z,65.63
2023-05-10T00:25:39.449Z,65.56
2023-05-10T00:26:39.521Z,65.48
2023-05-10T00:27:39.630Z,65.51
2023-05-10T00:28:39.685Z,65.51
2023-05-10T00:29:39.787Z,65.68
2023-05-10T00:30:39.834Z,65.78
2023-05-10T00:31:39.929Z,65.83
2023-05-10T00:32:40.037Z,65.92
2023-05-10T00:33:40.072Z,66.00
2023-05-10T00:34:40.170Z,66.05
2023-05-10T00:35:40.263Z,66.30
2023-05-10T00:36:40.318Z,66.16
2023-05-10T00:37:40.402Z,66.12
2023-05-10T00:38:40.491Z,66.09
2023-05-10T00:39:40.575Z,66.24
2023-05-10T00:40:40.660Z,66.12
2023-05-10T00:41:40.740Z,66.26
2023-05-10T00:42:40.824Z,66.42
2023-05-10T00:43:40.892Z,66.30
2023-05-10T00:44:40.972Z,66.34
2023-05-10T00:45:41.083Z,66.46
2023-05-10T00:46:41.159Z,66.35
2023-05-10T00:47:41.240Z,66.43
2023-05-10T00:48:41.300Z,66.44
2023-05-10T00:49:41.393Z,66.42
2023-05-10T00:50:41.489Z,66.53
2023-05-10T00:51:41.546Z,66.60
2023-05-10T00:52:41.625Z,66.86
2023-05-10T00:53:41.699Z,66.95
2023-05-10T00:54:41.792Z,66.90
2023-05-10T00:55:41.892Z,67.06
2023-05-10T00:56:41.940Z,67.01
2023-05-10T00:57:42.004Z,67.07
2023-05-10T00:58:42.114Z,67.22
2023-05-10T00:59:42.188Z,67.28
2023-05-10T01:00:42.290Z,67.31
2023-05-10T01:01:42.378Z,67.35
2023-05-10T01:02:42.506Z,67.44
2023-05-10T01:03:42.551Z,67.59
2023-05-10T01:04:42.638Z,67.62
2023-05-10T01:05:42.662Z,67.67
2023-05-10T01:06:42.776Z,67.68
2023-05-10T01:07:42.845Z,67.76
2023-05-10T01:08:42.912Z,67.74
2023-05-10T01:09:42.998Z,67.70
2023-05-10T01:10:43.087Z,67.81
2023-05-10T01:11:43.174Z,67.87
2023-05-10T01:12:43.395Z,67.90
2023-05-10T01:13:43.327Z,67.86
2023-05-10T01:14:43.412Z,67.99
2023-05-10T01:15:43.502Z,67.90
2023-05-10T01:16:43.577Z,68.01
2023-05-10T01:17:43.728Z,68.06
2023-05-10T01:18:43.738Z,68.15
2023-05-10T01:19:43.813Z,68.01
2023-05-10T01:20:43.902Z,68.12
2023-05-10T01:21:50.385Z,68.16
2023-05-10T01:22:46.649Z,68.17
2023-05-10T01:23:44.143Z,68.27
2023-05-10T01:24:44.219Z,68.31
2023-05-10T01:25:44.304Z,68.26
2023-05-10T01:26:44.404Z,68.40
2023-05-10T01:27:44.481Z,68.38
2023-05-10T01:28:44.562Z,68.31
2023-05-10T01:29:44.675Z,68.26
2023-05-10T01:30:44.765Z,68.20
2023-05-10T01:31:44.903Z,68.36
2023-05-10T01:32:44.973Z,68.44
2023-05-10T01:33:45.003Z,68.50
2023-05-10T01:34:45.080Z,68.37
2023-05-10T01:35:45.166Z,68.29
2023-05-10T01:36:45.218Z,68.33
2023-05-10T01:37:45.301Z,68.36
2023-05-10T01:38:45.371Z,68.35
2023-05-10T01:39:45.446Z,68.32
2023-05-10T01:40:45.604Z,68.34
2023-05-10T01:41:45.616Z,68.26
2023-05-10T01:42:45.681Z,68.35
2023-05-10T01:43:45.763Z,68.53
2023-05-10T01:44:45.856Z,68.70
2023-05-10T01:45:45.944Z,68.78
2023-05-10T01:46:46.045Z,68.84
2023-05-10T01:47:46.128Z,68.79
2023-05-10T01:48:46.172Z,68.85
2023-05-10T01:49:46.254Z,68.79
2023-05-10T01:50:46.358Z,68.91
2023-05-10T01:51:46.407Z,68.82
2023-05-10T01:52:46.499Z,68.85
2023-05-10T01:53:46.589Z,68.76
2023-05-10T01:54:46.667Z,68.75
2023-05-10T01:55:46.719Z,68.89
2023-05-10T01:56:46.800Z,68.80
2023-05-10T01:57:46.887Z,68.88
2023-05-10T01:58:46.986Z,68.94
2023-05-10T01:59:47.083Z,69.17
2023-05-10T02:00:47.204Z,69.11
2023-05-10T02:01:47.235Z,69.06
2023-05-10T02:02:47.407Z,69.16
2023-05-10T02:03:47.434Z,69.20
2023-05-10T02:04:47.461Z,69.33
2023-05-10T02:05:47.554Z,69.32
2023-05-10T02:06:47.625Z,69.32
2023-05-10T02:07:47.723Z,69.44
2023-05-10T02:08:47.825Z,69.43
2023-05-10T02:09:47.887Z,69.47
2023-05-10T02:10:47.989Z,69.48
2023-05-10T02:11:48.058Z,69.62
2023-05-10T02:12:48.163Z,69.70
2023-05-10T02:13:48.269Z,69.62
2023-05-10T02:14:48.329Z,69.54
2023-05-10T02:15:48.367Z,69.49
2023-05-10T02:16:48.475Z,69.46
2023-05-10T02:17:48.569Z,69.41
2023-05-10T02:18:48.628Z,69.51
2023-05-10T02:19:48.715Z,69.56
2023-05-10T02:20:48.819Z,69.64
2023-05-10T02:21:48.902Z,69.53
2023-05-10T02:22:48.975Z,69.78
2023-05-10T02:23:49.054Z,70.04
2023-05-10T02:24:49.152Z,70.14
2023-05-10T02:25:49.214Z,70.08
2023-05-10T02:26:49.305Z,70.08
2023-05-10T02:27:49.391Z,69.92
2023-05-10T02:28:49.488Z,69.98
2023-05-10T02:29:49.582Z,69.98
2023-05-10T02:30:49.687Z,70.16
2023-05-10T02:31:49.835Z,70.21
2023-05-10T02:32:49.868Z,70.24
2023-05-10T02:33:49.909Z,70.15
2023-05-10T02:34:50.035Z,70.24
2023-05-10T02:35:50.077Z,70.31
2023-05-10T02:36:50.172Z,70.41
2023-05-10T02:37:50.258Z,70.48
2023-05-10T02:38:50.340Z,70.48
2023-05-10T02:39:50.432Z,70.61
2023-05-10T02:40:50.532Z,70.67
2023-05-10T02:41:50.589Z,70.77
2023-05-10T02:42:50.665Z,70.94
2023-05-10T02:43:50.756Z,70.92
2023-05-10T02:44:50.814Z,71.01
2023-05-10T02:45:50.988Z,71.07
2023-05-10T02:46:50.996Z,71.33
2023-05-10T02:47:51.078Z,71.30
2023-05-10T02:48:51.146Z,71.15
2023-05-10T02:49:51.247Z,71.25
2023-05-10T02:50:51.292Z,71.28
2023-05-10T02:51:51.372Z,71.36
2023-05-10T02:52:51.479Z,71.34
2023-05-10T02:53:51.516Z,71.34
2023-05-10T02:54:51.610Z,71.49
2023-05-10T02:55:51.725Z,71.56
2023-05-10T02:56:51.770Z,71.55
2023-05-10T02:57:51.875Z,71.52
2023-05-10T02:58:51.948Z,71.60
2023-05-10T02:59:52.028Z,71.64
2023-05-10T03:00:52.214Z,71.75
2023-05-10T03:01:52.284Z,71.79
2023-05-10T03:02:52.338Z,71.87
2023-05-10T03:03:52.322Z,71.81
2023-05-10T03:04:52.474Z,72.00
2023-05-10T03:05:52.479Z,71.97
2023-05-10T03:06:52.758Z,71.88
2023-05-10T03:07:52.712Z,71.95
2023-05-10T03:08:52.706Z,72.16
2023-05-10T03:09:52.789Z,72.15
2023-05-10T03:10:52.878Z,72.20
2023-05-10T03:11:52.968Z,72.19
2023-05-10T03:12:53.079Z,72.19
2023-05-10T03:13:53.157Z,72.15
2023-05-10T03:14:53.209Z,72.17
2023-05-10T03:15:53.317Z,72.14
2023-05-10T03:16:53.422Z,72.11
2023-05-10T03:17:53.525Z,72.19
2023-05-10T03:18:53.549Z,72.31
2023-05-10T03:19:53.667Z,72.42
2023-05-10T03:20:53.734Z,72.36
2023-05-10T03:21:53.842Z,72.29
2023-05-10T03:22:53.898Z,72.30
2023-05-10T03:23:53.941Z,72.36
2023-05-10T03:24:54.023Z,72.30
2023-05-10T03:25:54.112Z,72.35
2023-05-10T03:26:54.211Z,72.38
2023-05-10T03:27:54.269Z,72.45
2023-05-10T03:28:54.360Z,72.42
2023-05-10T03:29:54.423Z,72.44
2023-05-10T03:30:54.509Z,72.45
2023-05-10T03:31:54.668Z,72.39
2023-05-10T03:32:54.723Z,72.58
2023-05-10T03:33:54.788Z,72.42
2023-05-10T03:34:54.867Z,72.60
2023-05-10T03:35:54.965Z,72.69
2023-05-10T03:36:55.038Z,72.69
2023-05-10T03:37:55.085Z,72.76
2023-05-10T03:38:55.177Z,72.93
2023-05-10T03:39:55.262Z,72.92
2023-05-10T03:40:55.351Z,72.88
2023-05-10T03:41:55.432Z,72.88
2023-05-10T03:42:55.516Z,72.90
2023-05-10T03:43:55.600Z,72.83
2023-05-10T03:44:55.701Z,72.76
2023-05-10T03:45:55.769Z,72.88
2023-05-10T03:46:55.883Z,72.68
2023-05-10T03:47:55.973Z,72.58
2023-05-10T03:48:56.032Z,72.53
2023-05-10T03:49:56.116Z,72.50
2023-05-10T03:50:56.199Z,72.26
2023-05-10T03:51:56.281Z,72.10
2023-05-10T03:52:56.399Z,72.04
2023-05-10T03:53:56.490Z,72.05
2023-05-10T03:54:56.584Z,71.82
2023-05-10T03:55:56.650Z,71.72
2023-05-10T03:56:56.771Z,71.49
2023-05-10T03:57:56.846Z,71.45
2023-05-10T03:58:56.929Z,71.37
2023-05-10T03:59:56.979Z,71.16
2023-05-10T04:00:57.062Z,70.97
2023-05-10T04:01:57.222Z,70.67
2023-05-10T04:02:57.341Z,70.70
2023-05-10T04:03:57.418Z,70.55
2023-05-10T04:04:57.384Z,70.31
2023-05-10T04:05:57.510Z,70.17
2023-05-10T04:06:57.568Z,70.03
2023-05-10T04:07:57.645Z,69.87
2023-05-10T04:08:57.735Z,69.69
2023-05-10T04:09:57.822Z,69.50
2023-05-10T04:10:57.892Z,69.36
2023-05-10T04:11:57.974Z,69.35
2023-05-10T04:12:58.105Z,69.22
2023-05-10T04:13:58.135Z,69.12
2023-05-10T04:14:58.234Z,68.87
2023-05-10T04:15:58.305Z,69.01
2023-05-10T04:16:58.402Z,68.87
2023-05-10T04:17:58.543Z,68.69
2023-05-10T04:18:58.531Z,68.53
2023-05-10T04:19:58.622Z,68.51
2023-05-10T04:20:58.705Z,68.23
2023-05-10T04:21:58.778Z,68.31
2023-05-10T04:22:58.869Z,68.17
2023-05-10T04:23:58.953Z,68.15
2023-05-10T04:24:59.056Z,67.85
2023-05-10T04:25:59.135Z,67.83
2023-05-10T04:26:59.236Z,67.52
2023-05-10T04:27:59.290Z,67.60
2023-05-10T04:28:59.374Z,67.45
2023-05-10T04:29:59.466Z,67.16
2023-05-10T04:30:59.580Z,66.93
2023-05-10T04:31:59.637Z,66.90
2023-05-10T04:34:15.065Z,66.55
2023-05-10T04:35:16.169Z,67.17
2023-05-10T04:36:16.250Z,66.96
2023-05-10T04:37:16.355Z,66.74
2023-05-10T04:38:16.428Z,66.39
2023-05-10T04:39:16.519Z,66.51
2023-05-10T04:40:16.859Z,66.50
2023-05-10T04:41:16.646Z,66.12
2023-05-10T04:42:16.736Z,66.08
2023-05-10T04:43:16.825Z,66.19
2023-05-10T04:44:16.851Z,66.13
2023-05-10T04:45:16.938Z,65.99
2023-05-10T04:46:17.073Z,65.89
2023-05-10T04:47:17.082Z,65.78
2023-05-10T04:49:37.897Z,65.30
2023-05-10T04:50:38.955Z,65.87
2023-05-10T04:51:39.026Z,65.59
2023-05-10T04:52:39.096Z,65.26
2023-05-10T04:53:39.190Z,65.07
2023-05-10T04:54:39.255Z,64.90
2023-05-10T04:55:39.345Z,64.53
2023-05-10T04:56:39.416Z,64.37
2023-05-10T04:57:39.524Z,64.45
2023-05-10T04:58:39.590Z,64.35
2023-05-10T04:59:39.689Z,64.13
2023-05-10T05:00:39.762Z,63.81
2023-05-10T05:01:39.877Z,63.70
2023-05-10T05:02:39.993Z,63.24
2023-05-10T05:03:40.073Z,63.04
2023-05-10T05:04:40.066Z,62.52
2023-05-10T05:05:40.152Z,62.18
2023-05-10T05:06:40.250Z,62.03
2023-05-10T05:07:40.297Z,61.66
2023-05-10T05:08:40.413Z,61.36
2023-05-10T05:09:40.462Z,61.58
2023-05-10T05:10:40.523Z,61.46
2023-05-10T05:11:40.610Z,61.40
2023-05-10T05:12:40.685Z,60.86
2023-05-10T05:13:40.783Z,60.32
2023-05-10T05:14:40.871Z,59.36
2023-05-10T05:15:40.973Z,58.73
2023-05-10T05:16:41.054Z,58.00
2023-05-10T05:17:41.169Z,57.71
2023-05-10T05:18:41.226Z,56.76
2023-05-10T05:19:41.348Z,56.11
2023-05-10T05:20:41.394Z,55.83
2023-05-10T05:21:41.481Z,55.23
2023-05-10T05:22:41.570Z,54.75
2023-05-10T05:23:41.687Z,54.66
2023-05-10T05:24:41.745Z,54.74
2023-05-10T05:25:41.804Z,54.69
2023-05-10T05:26:41.899Z,54.20
2023-05-10T05:27:41.982Z,53.84
2023-05-10T05:28:42.068Z,53.88
2023-05-10T05:29:42.142Z,53.40
2023-05-10T05:30:43.085Z,52.92
2023-05-10T05:31:42.281Z,53.19
2023-05-10T05:32:42.393Z,52.94
2023-05-10T05:33:42.422Z,52.58
2023-05-10T05:34:42.475Z,52.82
2023-05-10T05:35:42.562Z,52.89
2023-05-10T05:36:42.647Z,53.04
2023-05-10T05:37:42.744Z,53.32
2023-05-10T05:38:42.835Z,53.14
2023-05-10T05:39:42.932Z,52.58
2023-05-10T05:40:43.034Z,52.84
2023-05-10T05:41:43.127Z,52.90
2023-05-10T05:42:43.184Z,52.64
2023-05-10T05:43:43.281Z,52.78
2023-05-10T05:44:43.378Z,53.25
2023-05-10T05:45:44.458Z,52.54
2023-05-10T05:46:43.544Z,53.02
2023-05-10T05:47:43.616Z,53.47
2023-05-10T05:48:43.690Z,53.95
2023-05-10T05:49:43.790Z,54.28
2023-05-10T05:50:43.889Z,54.12
2023-05-10T05:51:43.958Z,53.66
2023-05-10T05:52:44.042Z,53.39
2023-05-10T05:53:44.145Z,54.16
2023-05-10T05:54:44.256Z,54.26
2023-05-10T05:55:44.325Z,53.93
2023-05-10T05:56:44.430Z,53.76
2023-05-10T05:57:44.495Z,53.85
2023-05-10T05:58:44.565Z,53.70
2023-05-10T05:59:44.662Z,52.98
2023-05-10T06:00:44.788Z,53.16
2023-05-10T06:01:44.859Z,52.91
2023-05-10T06:02:45.255Z,52.72
2023-05-10T06:03:45.058Z,52.57
2023-05-10T06:04:45.094Z,53.09
2023-05-10T06:05:45.184Z,53.61
2023-05-10T06:06:45.271Z,53.94
2023-05-10T06:07:45.360Z,54.14
2023-05-10T06:08:45.467Z,54.38
2023-05-10T06:09:45.543Z,54.73
2023-05-10T06:10:45.578Z,54.67
2023-05-10T06:11:45.676Z,55.66
2023-05-10T06:12:45.757Z,55.63
2023-05-10T06:13:45.840Z,55.54
2023-05-10T06:14:45.903Z,55.81
2023-05-10T06:15:46.001Z,55.77
2023-05-10T06:16:46.145Z,55.94
2023-05-10T06:17:46.195Z,55.96
2023-05-10T06:18:46.233Z,56.06
2023-05-10T06:19:46.316Z,56.15
2023-05-10T06:20:46.382Z,56.11
2023-05-10T06:21:46.452Z,56.31
2023-05-10T06:22:46.502Z,56.30
2023-05-10T06:23:46.561Z,56.41
2023-05-10T06:24:46.658Z,56.68
2023-05-10T06:25:46.721Z,56.38
2023-05-10T06:26:46.811Z,56.17
2023-05-10T06:27:50.972Z,56.42
2023-05-10T06:28:47.003Z,56.23
2023-05-10T06:29:47.079Z,55.92
2023-05-10T06:30:47.193Z,55.86
2023-05-10T06:31:47.378Z,56.03
2023-05-10T06:32:47.400Z,55.76
2023-05-10T06:33:47.404Z,55.58
2023-05-10T06:34:47.497Z,55.41
2023-05-10T06:35:47.592Z,55.09
2023-05-10T06:36:47.674Z,54.81
2023-05-10T06:37:47.753Z,55.38
2023-05-10T06:38:47.871Z,55.55
2023-05-10T06:39:47.919Z,55.62
2023-05-10T06:40:48.022Z,55.60
2023-05-10T06:41:48.112Z,55.32
2023-05-10T06:42:48.174Z,55.34
2023-05-10T06:43:48.227Z,55.08
2023-05-10T06:44:48.330Z,54.63
2023-05-10T06:45:48.395Z,54.01
2023-05-10T06:46:48.577Z,53.56
2023-05-10T06:47:48.537Z,53.02
2023-05-10T06:48:48.605Z,52.62
2023-05-10T06:49:48.694Z,52.26
2023-05-10T06:50:48.792Z,52.30
2023-05-10T06:51:48.852Z,51.91
2023-05-10T06:52:49.534Z,51.18
2023-05-10T06:53:49.032Z,51.55
2023-05-10T06:54:49.127Z,51.00
2023-05-10T06:55:49.182Z,50.22
2023-05-10T06:56:49.297Z,49.55
2023-05-10T06:57:49.365Z,49.92
2023-05-10T06:58:49.484Z,49.61
2023-05-10T06:59:49.503Z,48.13
2023-05-10T07:00:49.575Z,47.23
2023-05-10T07:01:49.707Z,46.74
2023-05-10T07:02:49.876Z,46.46
2023-05-10T07:03:49.824Z,46.00
2023-05-10T07:04:49.974Z,46.60
2023-05-10T07:05:50.031Z,46.75
2023-05-10T07:06:50.080Z,46.50
2023-05-10T07:07:50.156Z,46.79
2023-05-10T07:08:50.289Z,47.56
2023-05-10T07:09:50.310Z,47.43
2023-05-10T07:10:50.397Z,47.73
2023-05-10T07:11:50.536Z,46.70
2023-05-10T07:12:50.646Z,46.16
2023-05-10T07:13:50.638Z,45.69
2023-05-10T07:14:50.722Z,45.51
2023-05-10T07:15:50.817Z,45.26
2023-05-10T07:16:50.868Z,44.56
2023-05-10T07:17:51.060Z,44.69
2023-05-10T07:18:51.029Z,44.69
2023-05-10T07:19:51.129Z,45.15
2023-05-10T07:20:51.252Z,45.75
2023-05-10T07:21:51.312Z,46.77
2023-05-10T07:22:51.357Z,46.78
2023-05-10T07:23:51.472Z,46.63
2023-05-10T07:24:51.531Z,45.62
2023-05-10T07:25:51.606Z,45.42
2023-05-10T07:26:51.704Z,44.79
2023-05-10T07:27:51.765Z,45.18
2023-05-10T07:28:51.877Z,45.48
2023-05-10T07:29:51.968Z,46.19
2023-05-10T07:30:52.141Z,46.89
2023-05-10T07:31:52.203Z,46.84
2023-05-10T07:32:52.238Z,47.18
2023-05-10T07:33:52.320Z,48.14
2023-05-10T07:34:52.381Z,47.88
2023-05-10T07:35:52.535Z,47.27
2023-05-10T07:36:52.529Z,47.75
2023-05-10T07:37:52.607Z,47.97
2023-05-10T07:38:52.680Z,47.98
2023-05-10T07:39:52.739Z,48.36
2023-05-10T07:40:52.858Z,48.54
2023-05-10T07:41:52.942Z,49.18
2023-05-10T07:42:52.983Z,49.18
2023-05-10T07:43:53.072Z,48.91
2023-05-10T07:44:53.217Z,49.22
2023-05-10T07:45:55.992Z,48.88
2023-05-10T07:46:53.301Z,49.07
2023-05-10T07:47:53.464Z,49.66
2023-05-10T07:48:53.459Z,49.91
2023-05-10T07:49:53.528Z,50.03
2023-05-10T07:50:53.615Z,49.62
2023-05-10T07:51:53.672Z,49.45
2023-05-10T07:52:53.763Z,50.29
2023-05-10T07:53:53.821Z,50.49
2023-05-10T07:54:53.906Z,50.30
2023-05-10T07:55:53.967Z,49.84
2023-05-10T07:56:54.621Z,50.03
2023-05-10T07:57:54.106Z,50.05
2023-05-10T07:58:54.218Z,50.04
2023-05-10T07:59:54.287Z,49.70
2023-05-10T08:00:54.654Z,49.50
2023-05-10T08:01:54.460Z,49.49
2023-05-10T08:02:54.615Z,50.30
2023-05-10T08:03:54.747Z,50.76
2023-05-10T08:04:54.707Z,50.68
2023-05-10T08:05:54.796Z,50.28
2023-05-10T08:06:54.880Z,51.12
2023-05-10T08:07:55.010Z,51.73
2023-05-10T08:08:55.021Z,50.84
2023-05-10T08:09:55.115Z,50.84
2023-05-10T08:10:55.190Z,51.37
2023-05-10T08:11:55.240Z,51.37
2023-05-10T08:12:55.350Z,51.50
2023-05-10T08:13:55.403Z,51.37
2023-05-10T08:14:55.492Z,51.54
2023-05-10T08:15:55.596Z,52.33
2023-05-10T08:16:55.641Z,51.83
2023-05-10T08:17:55.722Z,51.52
2023-05-10T08:18:55.827Z,50.87
2023-05-10T08:19:55.862Z,51.21
2023-05-10T08:20:55.944Z,51.17
2023-05-10T08:21:56.033Z,50.89
2023-05-10T08:22:56.100Z,50.72
2023-05-10T08:23:56.180Z,50.72
2023-05-10T08:24:56.287Z,50.61
2023-05-10T08:25:56.345Z,50.65
2023-05-10T08:26:56.399Z,50.73
2023-05-10T08:27:56.461Z,50.97
2023-05-10T08:28:56.519Z,51.09
2023-05-10T08:29:56.603Z,51.50
2023-05-10T08:30:56.761Z,52.00
2023-05-10T08:31:56.777Z,52.02
2023-05-10T08:32:56.878Z,52.04
2023-05-10T08:33:56.904Z,52.99
2023-05-10T08:34:56.978Z,53.73
2023-05-10T08:35:57.034Z,54.58
2023-05-10T08:36:57.136Z,54.67
2023-05-10T08:37:57.241Z,55.52
2023-05-10T08:38:57.310Z,56.06
2023-05-10T08:39:57.396Z,56.46
2023-05-10T08:40:57.657Z,56.42
2023-05-10T08:41:57.541Z,56.17
2023-05-10T08:42:57.598Z,56.09
2023-05-10T08:43:57.717Z,56.23
2023-05-10T08:44:57.752Z,56.42
2023-05-10T08:45:57.821Z,56.55
2023-05-10T08:46:57.936Z,56.51
2023-05-10T08:47:58.013Z,56.32
2023-05-10T08:48:58.061Z,56.51
2023-05-10T08:49:58.116Z,56.57
2023-05-10T08:50:58.182Z,56.19
2023-05-10T08:51:58.287Z,56.68
2023-05-10T08:52:58.344Z,57.56
2023-05-10T08:53:58.444Z,58.23
2023-05-10T08:54:58.514Z,59.63
2023-05-10T08:55:58.580Z,59.65
2023-05-10T08:56:58.674Z,59.50
2023-05-10T08:57:58.724Z,59.03
2023-05-10T08:58:58.829Z,59.01
2023-05-10T08:59:58.887Z,58.93
2023-05-10T09:00:59.015Z,59.18
2023-05-10T09:01:59.055Z,58.80
2023-05-10T09:02:59.197Z,58.22
2023-05-10T09:03:59.312Z,58.18
2023-05-10T09:04:59.413Z,58.89
2023-05-10T09:05:59.413Z,59.18
2023-05-10T09:06:59.447Z,59.28
2023-05-10T09:07:59.552Z,60.07
2023-05-10T09:08:59.607Z,60.78
2023-05-10T09:09:59.709Z,60.88
2023-05-10T09:10:59.784Z,61.26
2023-05-10T09:11:59.842Z,61.65
2023-05-10T09:12:59.936Z,62.18
2023-05-10T09:14:00.068Z,62.49
2023-05-10T09:15:00.125Z,62.76
2023-05-10T09:16:04.453Z,63.59
2023-05-10T09:17:00.312Z,64.06
2023-05-10T09:18:00.529Z,64.64
2023-05-10T09:19:00.459Z,64.63
2023-05-10T09:20:00.520Z,64.21
2023-05-10T09:21:00.598Z,64.60
2023-05-10T09:22:00.668Z,64.80
2023-05-10T09:23:00.728Z,65.65
2023-05-10T09:24:00.785Z,65.82
2023-05-10T09:25:00.867Z,66.13
2023-05-10T09:26:00.920Z,65.99
2023-05-10T09:27:01.036Z,65.80
2023-05-10T09:28:01.111Z,66.36
2023-05-10T09:29:01.171Z,66.79
2023-05-10T09:30:01.296Z,67.43
2023-05-10T09:31:01.405Z,68.94
2023-05-10T09:32:01.391Z,70.49
2023-05-10T09:33:01.488Z,71.74
2023-05-10T09:34:01.529Z,74.69
2023-05-10T09:35:01.619Z,76.68
2023-05-10T09:36:01.690Z,75.89
2023-05-10T09:37:01.828Z,76.18
2023-05-10T09:38:01.878Z,79.32
2023-05-10T09:39:01.966Z,80.07
2023-05-10T09:40:02.035Z,81.59
2023-05-10T09:41:02.115Z,81.49
2023-05-10T09:42:02.167Z,81.28
2023-05-10T09:43:02.265Z,81.60
2023-05-10T09:44:02.377Z,84.25
2023-05-10T09:45:02.453Z,81.33
2023-05-10T09:46:02.557Z,82.92
2023-05-10T09:47:02.704Z,82.46
2023-05-10T09:48:02.764Z,84.42
2023-05-10T09:49:02.734Z,85.62
2023-05-10T09:50:02.796Z,86.10
2023-05-10T09:51:02.911Z,86.55
2023-05-10T09:52:02.991Z,86.86
2023-05-10T09:53:03.044Z,87.31
2023-05-10T09:54:03.106Z,88.13
2023-05-10T09:55:03.197Z,88.23
2023-05-10T09:56:03.313Z,88.42
2023-05-10T09:57:03.355Z,86.77
2023-05-10T09:58:03.451Z,87.34
2023-05-10T09:59:03.567Z,88.62
2023-05-10T10:00:03.601Z,88.65
2023-05-10T10:01:03.733Z,88.09
2023-05-10T10:02:03.935Z,88.65
2023-05-10T10:03:03.876Z,88.30
2023-05-10T10:04:03.925Z,89.29
2023-05-10T10:05:04.098Z,88.46
2023-05-10T10:06:04.086Z,88.38
2023-05-10T10:07:04.159Z,89.04
2023-05-10T10:08:04.210Z,89.14
2023-05-10T10:09:04.275Z,88.95
2023-05-10T10:10:04.364Z,89.08
2023-05-10T10:11:04.467Z,88.39
2023-05-10T10:12:04.549Z,89.04
2023-05-10T10:13:04.617Z,89.84
2023-05-10T10:14:04.718Z,89.85
2023-05-10T10:15:04.785Z,90.01
2023-05-10T10:16:04.865Z,89.87
2023-05-10T10:17:08.577Z,90.00
2023-05-10T10:18:05.196Z,89.28
2023-05-10T10:19:05.167Z,89.85
2023-05-10T10:20:05.142Z,89.41
2023-05-10T10:21:05.235Z,89.41
2023-05-10T10:22:05.391Z,90.60
2023-05-10T10:23:05.377Z,90.31
2023-05-10T10:24:05.441Z,90.19
2023-05-10T10:25:05.538Z,89.65
2023-05-10T10:26:05.644Z,89.38
2023-05-10T10:27:05.713Z,89.25
2023-05-10T10:28:05.794Z,88.49
2023-05-10T10:29:05.851Z,89.45
2023-05-10T10:30:05.949Z,89.53
2023-05-10T10:31:06.070Z,89.82
2023-05-10T10:32:06.146Z,89.75
2023-05-10T10:33:16.584Z,88.71
2023-05-10T10:34:06.298Z,89.24
2023-05-10T10:35:06.366Z,90.30
2023-05-10T10:36:06.451Z,89.95
2023-05-10T10:37:06.537Z,88.42
2023-05-10T10:38:06.657Z,89.21
2023-05-10T10:39:06.716Z,89.89
2023-05-10T10:40:06.776Z,89.00
2023-05-10T10:41:06.896Z,88.94
2023-05-10T10:42:06.952Z,88.01
2023-05-10T10:43:07.051Z,88.77
2023-05-10T10:44:07.110Z,89.67
2023-05-10T10:45:07.166Z,89.73
2023-05-10T10:46:07.260Z,88.20
2023-05-10T10:47:08.237Z,88.33
2023-05-10T10:48:07.444Z,88.04
2023-05-10T10:49:07.477Z,86.87
2023-05-10T10:50:07.579Z,88.05
2023-05-10T10:51:07.650Z,89.69
2023-05-10T10:52:07.726Z,88.91
2023-05-10T10:53:07.938Z,87.89
2023-05-10T10:54:07.918Z,88.32
2023-05-10T10:55:07.985Z,87.36
2023-05-10T10:56:08.049Z,87.71
2023-05-10T10:57:08.153Z,88.27
2023-05-10T10:58:08.207Z,89.01
2023-05-10T10:59:08.304Z,88.81
2023-05-10T11:00:08.380Z,87.15
2023-05-10T11:01:08.537Z,86.93
2023-05-10T11:02:08.544Z,87.14
2023-05-10T11:03:08.731Z,88.67
2023-05-10T11:04:08.802Z,89.08
2023-05-10T11:05:08.832Z,88.79
2023-05-10T11:06:08.899Z,89.13
2023-05-10T11:07:08.985Z,88.79
2023-05-10T11:08:09.110Z,90.61
2023-05-10T11:09:09.139Z,90.36
2023-05-10T11:10:09.205Z,90.14
2023-05-10T11:11:09.297Z,90.74
2023-05-10T11:12:09.353Z,91.03
2023-05-10T11:13:09.441Z,90.51
2023-05-10T11:14:09.610Z,89.78
2023-05-10T11:15:09.609Z,89.79
2023-05-10T11:16:09.710Z,90.07
2023-05-10T11:17:09.831Z,90.92
2023-05-10T11:18:09.882Z,91.02
2023-05-10T11:19:10.122Z,90.91
2023-05-10T11:20:10.032Z,90.97
2023-05-10T11:21:10.068Z,91.24
2023-05-10T11:22:10.189Z,90.84
2023-05-10T11:23:10.257Z,90.44
2023-05-10T11:24:10.334Z,91.43
2023-05-10T11:25:10.471Z,90.79
2023-05-10T11:26:10.550Z,91.32
2023-05-10T11:27:10.596Z,90.93
2023-05-10T11:28:10.637Z,91.49
2023-05-10T11:29:10.763Z,91.11
2023-05-10T11:30:10.802Z,90.26
2023-05-10T11:31:10.915Z,91.13
2023-05-10T11:32:10.996Z,91.66
2023-05-10T11:33:11.057Z,91.28
2023-05-10T11:34:11.157Z,91.15
2023-05-10T11:35:11.285Z,91.24
2023-05-10T11:36:11.317Z,91.06
2023-05-10T11:37:11.384Z,91.00
2023-05-10T11:38:11.488Z,90.38
2023-05-10T11:39:11.557Z,90.99
2023-05-10T11:40:11.614Z,90.88
2023-05-10T11:41:11.737Z,91.99
2023-05-10T11:42:11.797Z,91.79
2023-05-10T11:43:11.871Z,92.29
2023-05-10T11:44:11.999Z,91.99
2023-05-10T11:45:12.048Z,91.62
2023-05-10T11:46:12.200Z,91.12
2023-05-10T11:47:12.197Z,90.14
2023-05-10T11:48:12.305Z,92.03
2023-05-10T11:49:12.319Z,91.39
2023-05-10T11:50:12.419Z,91.77
2023-05-10T11:51:12.484Z,91.78
2023-05-10T11:52:12.544Z,92.48
2023-05-10T11:53:12.615Z,91.83
2023-05-10T11:54:12.709Z,92.19
2023-05-10T11:55:12.767Z,92.38
2023-05-10T11:56:12.900Z,92.02
2023-05-10T11:57:12.955Z,91.64
2023-05-10T11:58:13.046Z,91.48
2023-05-10T11:59:13.100Z,90.80
2023-05-10T12:00:13.197Z,92.35
2023-05-10T12:01:13.231Z,92.87
2023-05-10T12:02:13.365Z,92.09
2023-05-10T12:03:13.541Z,92.10
2023-05-10T12:04:13.680Z,91.22
2023-05-10T12:05:13.594Z,91.07
2023-05-10T12:06:13.698Z,92.32
2023-05-10T12:07:13.770Z,93.18
2023-05-10T12:08:13.824Z,92.55
2023-05-10T12:09:13.934Z,92.33
2023-05-10T12:10:14.082Z,92.27
2023-05-10T12:11:14.062Z,91.84
2023-05-10T12:12:14.146Z,90.90
2023-05-10T12:13:14.218Z,92.00
2023-05-10T12:14:14.289Z,91.68
2023-05-10T12:15:14.364Z,91.85
2023-05-10T12:16:15.030Z,90.88
2023-05-10T12:17:14.516Z,90.43
2023-05-10T12:18:14.590Z,90.91
2023-05-10T12:19:14.640Z,92.60
2023-05-10T12:20:15.027Z,91.97
2023-05-10T12:21:14.796Z,91.04
2023-05-10T12:22:14.904Z,91.35
2023-05-10T12:23:14.980Z,91.89
2023-05-10T12:24:15.035Z,92.31
2023-05-10T12:25:15.151Z,92.29
2023-05-10T12:26:15.256Z,91.68
2023-05-10T12:27:15.326Z,92.19
2023-05-10T12:28:15.402Z,92.69
2023-05-10T12:29:15.468Z,91.53
2023-05-10T12:30:15.797Z,92.03
2023-05-10T12:31:15.691Z,91.94
2023-05-10T12:32:15.833Z,92.09
2023-05-10T12:33:15.993Z,92.53
2023-05-10T12:34:15.828Z,92.13
2023-05-10T12:35:15.889Z,92.54
2023-05-10T12:36:15.983Z,93.22
2023-05-10T12:37:16.084Z,92.93
2023-05-10T12:38:16.235Z,91.94
2023-05-10T12:39:16.247Z,91.81
2023-05-10T12:40:16.486Z,91.64
2023-05-10T12:41:16.444Z,91.37
2023-05-10T12:42:16.483Z,91.05
2023-05-10T12:43:16.591Z,91.89
2023-05-10T12:44:16.637Z,90.42
2023-05-10T12:45:16.748Z,91.06
2023-05-10T12:46:17.019Z,91.06
2023-05-10T12:47:16.907Z,91.08
2023-05-10T12:48:17.041Z,91.10
2023-05-10T12:49:17.064Z,90.31
2023-05-10T12:50:17.443Z,91.78
2023-05-10T12:51:17.247Z,91.22
2023-05-10T12:52:17.327Z,91.14
2023-05-10T12:53:17.426Z,90.99
2023-05-10T12:54:17.517Z,90.38
2023-05-10T12:55:17.604Z,90.58
2023-05-10T12:56:17.698Z,90.48